Time;durP1;ratioP1;P1;durP2;ratioP2;P2;SDS_P1;SDS_P2;PMS_P1;PMS_P2;Temp;Humidity;BMP_temperature;BMP_pressure;BME280_temperature;BME280_humidity;BME280_pressure;Samples;Min_cycle;Max_cycle;Signal;HPM_P1;HPM_P2
2022/06/05 00:00:16;;;;;;;6.82;5.97;;;;;;;24.71;100.00;100076.66;5093157;28;20218;-69
2022/06/05 00:02:59;;;;;;;6.88;5.95;;;;;;;24.71;100.00;100051.91;5092608;28;20214;-69
2022/06/05 00:05:32;;;;;;;11.98;7.60;;;;;;;24.80;100.00;100062.97;5102840;28;20209;-69
2022/06/05 00:08:13;;;;;;;8.70;7.85;;;;;;;24.67;100.00;100049.41;5110548;28;20198;-69
2022/06/05 00:10:48;;;;;;;8.90;8.00;;;;;;;24.50;100.00;100043.09;5091662;28;20579;-69
2022/06/05 00:13:22;;;;;;;9.48;7.90;;;;;;;24.35;100.00;100043.75;5097143;28;20216;-69
2022/06/05 00:15:48;;;;;;;8.77;7.88;;;;;;;24.25;100.00;100037.09;5100471;28;20204;-69
2022/06/05 00:18:17;;;;;;;10.48;8.43;;;;;;;24.11;100.00;100041.13;5111002;28;20197;-69
2022/06/05 00:20:45;;;;;;;11.60;8.88;;;;;;;24.10;100.00;100035.91;5086911;28;20576;-69
2022/06/05 00:23:12;;;;;;;12.90;9.07;;;;;;;23.87;100.00;100031.53;5111368;28;20709;-69
2022/06/05 00:25:48;;;;;;;12.93;8.80;;;;;;;23.91;100.00;100027.84;5094321;28;20201;-69
2022/06/05 00:28:20;;;;;;;11.77;8.75;;;;;;;23.87;100.00;100023.59;5091152;28;20218;-69
2022/06/05 00:30:58;;;;;;;10.57;8.23;;;;;;;23.83;100.00;100003.44;5091242;28;20689;-69
2022/06/05 00:33:35;;;;;;;11.73;8.10;;;;;;;23.64;100.00;99946.88;5090705;28;20626;-69
2022/06/05 00:36:10;;;;;;;10.60;8.30;;;;;;;24.16;100.00;100011.84;5090810;28;20216;-69
2022/06/05 00:38:44;;;;;;;10.23;8.90;;;;;;;24.26;100.00;100018.47;5091006;28;20212;-69
2022/06/05 00:41:32;;;;;;;10.63;8.52;;;;;;;24.29;100.00;100002.47;5109794;28;20194;-69
2022/06/05 00:44:00;;;;;;;11.80;8.27;;;;;;;24.41;100.00;100012.53;5093724;28;20225;-69
2022/06/05 00:46:28;;;;;;;11.77;8.07;;;;;;;24.38;100.00;100022.41;5110990;28;20190;-69
2022/06/05 00:48:56;;;;;;;9.00;8.10;;;;;;;24.24;100.00;100020.34;5089787;28;20197;-70
2022/06/05 00:51:23;;;;;;;11.38;7.68;;;;;;;24.21;100.00;100025.78;5091382;28;20194;-69
2022/06/05 00:53:51;;;;;;;11.77;7.75;;;;;;;24.09;100.00;100008.56;5090760;28;20209;-69
2022/06/05 00:56:18;;;;;;;8.35;7.45;;;;;;;24.09;100.00;100024.44;5094751;28;20259;-68
2022/06/05 00:58:45;;;;;;;10.77;7.90;;;;;;;24.01;100.00;100029.19;5055897;28;20202;-69
2022/06/05 01:01:13;;;;;;;11.07;7.80;;;;;;;23.97;100.00;100032.06;5097721;28;20190;-68
2022/06/05 01:03:40;;;;;;;11.80;9.30;;;;;;;23.98;100.00;100029.31;5071352;28;20228;-69
2022/06/05 01:06:08;;;;;;;13.18;7.75;;;;;;;24.03;100.00;100042.38;5109777;28;20227;-69
2022/06/05 01:08:35;;;;;;;13.35;8.25;;;;;;;23.88;100.00;100021.81;5075938;28;20661;-69
2022/06/05 01:11:14;;;;;;;13.63;8.00;;;;;;;23.99;100.00;100051.38;5106061;28;20201;-69
2022/06/05 01:13:54;;;;;;;11.98;6.82;;;;;;;23.83;100.00;100045.00;5094183;28;20194;-69
2022/06/05 01:16:26;;;;;;;14.23;7.22;;;;;;;23.76;100.00;100038.22;5095159;28;20578;-70
2022/06/05 01:19:07;;;;;;;9.02;6.50;;;;;;;23.83;100.00;100024.63;5094000;28;20206;-70
2022/06/05 01:21:58;;;;;;;9.70;6.57;;;;;;;24.05;100.00;100052.00;5107989;28;20198;-69
2022/06/05 01:24:43;;;;;;;7.75;6.07;;;;;;;24.07;100.00;100050.16;5105540;28;20222;-69
2022/06/05 01:27:15;;;;;;;7.05;6.22;;;;;;;23.91;100.00;100022.56;5097432;28;20229;-69
2022/06/05 01:29:46;;;;;;;8.35;5.80;;;;;;;24.02;100.00;100057.41;5100477;28;20194;-69
2022/06/05 01:32:19;;;;;;;6.85;6.15;;;;;;;23.92;100.00;100034.00;5103138;28;20203;-69
2022/06/05 01:34:49;;;;;;;6.82;6.22;;;;;;;24.08;100.00;100051.00;5103003;28;20204;-69
2022/06/05 01:37:22;;;;;;;11.38;6.38;;;;;;;23.88;100.00;100003.28;5113936;28;20190;-69
2022/06/05 01:39:54;;;;;;;10.43;5.85;;;;;;;24.11;100.00;100051.72;5113866;28;20210;-71
2022/06/05 01:42:28;;;;;;;7.00;5.40;;;;;;;24.11;100.00;100067.63;5101957;28;20194;-71
2022/06/05 01:44:58;;;;;;;10.40;6.43;;;;;;;24.07;100.00;100067.84;5108187;28;20225;-71
2022/06/05 01:47:32;;;;;;;7.22;6.53;;;;;;;23.92;100.00;100071.09;5111455;28;20206;-71
2022/06/05 01:50:04;;;;;;;8.32;6.53;;;;;;;23.88;100.00;100064.19;5077477;28;20291;-71
2022/06/05 01:52:36;;;;;;;14.73;6.78;;;;;;;23.91;100.00;100064.06;5113804;28;20284;-71
2022/06/05 01:55:07;;;;;;;8.68;6.00;;;;;;;23.84;100.00;100036.09;5097483;28;20198;-71
2022/06/05 01:57:36;;;;;;;9.35;6.53;;;;;;;24.00;100.00;100061.94;5107546;28;20189;-71
2022/06/05 02:00:10;;;;;;;6.90;6.13;;;;;;;23.88;100.00;100048.28;5102089;28;20230;-72
2022/06/05 02:02:42;;;;;;;10.90;6.60;;;;;;;23.89;100.00;100044.72;5057442;28;20197;-71
2022/06/05 02:05:14;;;;;;;9.43;6.68;;;;;;;23.98;100.00;100050.50;5111605;28;20692;-71
2022/06/05 02:07:47;;;;;;;10.15;6.93;;;;;;;23.97;100.00;100030.25;5108194;28;20190;-72
2022/06/05 02:10:22;;;;;;;12.18;7.28;;;;;;;24.20;100.00;100047.88;5094271;28;20611;-72
2022/06/05 02:12:53;;;;;;;11.98;7.40;;;;;;;24.11;100.00;100035.84;5075241;28;20201;-71
2022/06/05 02:15:20;;;;;;;10.00;7.07;;;;;;;24.06;100.00;100048.44;5077214;28;20255;-71
2022/06/05 02:17:47;;;;;;;10.52;7.72;;;;;;;24.10;100.00;100052.69;5096941;28;20193;-71
2022/06/05 02:20:15;;;;;;;8.90;6.38;;;;;;;24.28;100.00;100052.88;5111855;28;20201;-71
2022/06/05 02:22:45;;;;;;;10.27;6.80;;;;;;;24.27;100.00;100057.31;5111942;28;20193;-72
2022/06/05 02:25:13;;;;;;;18.80;8.60;;;;;;;24.31;100.00;100056.25;5105385;28;20236;-72
2022/06/05 02:27:40;;;;;;;12.73;8.13;;;;;;;24.33;100.00;100050.91;5111198;28;20571;-72
2022/06/05 02:30:11;;;;;;;13.45;8.45;;;;;;;24.22;100.00;100050.50;5107920;28;20199;-72
2022/06/05 02:32:56;;;;;;;23.60;12.13;;;;;;;24.12;100.00;100048.16;5100784;28;20193;-72
2022/06/05 02:35:36;;;;;;;27.15;13.73;;;;;;;24.13;100.00;100036.69;5112587;28;20197;-72
2022/06/05 02:38:24;;;;;;;25.30;13.38;;;;;;;24.33;100.00;100064.16;5112434;28;20197;-72
2022/06/05 02:41:00;;;;;;;24.98;14.13;;;;;;;24.28;100.00;100059.03;5112236;28;20202;-72
2022/06/05 02:43:33;;;;;;;26.55;14.00;;;;;;;24.23;100.00;100046.88;5103266;28;20217;-72
2022/06/05 02:46:09;;;;;;;19.00;13.00;;;;;;;24.13;100.00;100049.94;5110308;28;20189;-71
2022/06/05 02:48:39;;;;;;;28.33;13.30;;;;;;;24.11;100.00;100049.09;5110429;28;20189;-72
2022/06/05 02:51:10;;;;;;;32.15;12.60;;;;;;;23.85;100.00;100022.81;5092234;28;20198;-72
2022/06/05 02:53:49;;;;;;;20.40;11.60;;;;;;;24.02;100.00;100030.94;5095951;28;20209;-72
2022/06/05 02:56:17;;;;;;;21.13;11.77;;;;;;;24.01;100.00;100039.78;5112534;28;21024;-72
2022/06/05 02:58:44;;;;;;;19.35;10.90;;;;;;;23.86;100.00;100011.31;5111385;28;20193;-71
2022/06/05 03:03:58;;;;;;;18.85;10.35;;;;;;;23.96;100.00;100031.19;5096154;28;20602;-71
2022/06/05 03:06:25;;;;;;;16.45;10.30;;;;;;;23.81;100.00;100005.31;5091708;28;20194;-71
2022/06/05 03:08:51;;;;;;;17.17;10.68;;;;;;;23.91;100.00;100016.38;5091860;28;20887;-72
2022/06/05 03:11:18;;;;;;;19.63;10.57;;;;;;;23.90;100.00;100009.38;5091818;28;20198;-71
2022/06/05 03:13:45;;;;;;;18.35;10.10;;;;;;;23.96;100.00;99994.09;5091738;28;20666;-72
2022/06/05 03:16:14;;;;;;;20.38;10.55;;;;;;;23.97;100.00;100006.41;5095748;28;20204;-71
2022/06/05 03:18:41;;;;;;;14.30;10.45;;;;;;;24.07;100.00;100010.41;5109995;28;20201;-71
2022/06/05 03:21:07;;;;;;;22.00;11.32;;;;;;;24.15;100.00;100004.84;5112277;28;20190;-71
2022/06/05 03:23:34;;;;;;;17.42;11.02;;;;;;;24.14;100.00;100009.28;5109388;28;20217;-71
2022/06/05 03:26:02;;;;;;;21.90;11.82;;;;;;;24.10;100.00;100018.25;5106887;28;20198;-71
2022/06/05 03:28:29;;;;;;;19.23;11.77;;;;;;;24.09;100.00;100016.50;5111783;28;20205;-71
2022/06/05 03:30:56;;;;;;;15.68;11.40;;;;;;;24.00;100.00;100022.19;5110018;28;20197;-72
2022/06/05 03:33:24;;;;;;;15.95;10.18;;;;;;;23.95;100.00;100007.41;5109788;28;20193;-71
2022/06/05 03:35:51;;;;;;;15.20;9.57;;;;;;;23.91;100.00;100016.38;5108489;28;20197;-71
2022/06/05 03:38:18;;;;;;;10.90;8.52;;;;;;;24.49;100.00;100034.28;5073865;28;20201;-72
2022/06/05 03:40:46;;;;;;;10.65;8.15;;;;;;;25.15;100.00;100034.91;5111200;28;20198;-72
2022/06/05 03:43:13;;;;;;;12.35;8.88;;;;;;;25.68;100.00;100047.56;5078557;28;20197;-72
2022/06/05 03:45:41;;;;;;;9.32;7.72;;;;;;;26.39;100.00;100047.59;5091320;28;20225;-72
2022/06/05 03:48:09;;;;;;;9.18;6.75;;;;;;;26.89;100.00;100057.47;5053881;28;20201;-72
2022/06/05 03:50:40;;;;;;;8.57;6.55;;;;;;;26.78;100.00;100059.78;5092704;28;20198;-72
2022/06/05 03:53:07;;;;;;;11.93;7.40;;;;;;;26.56;100.00;100057.34;5104167;28;20206;-71
2022/06/05 03:55:34;;;;;;;9.73;7.22;;;;;;;26.66;100.00;100050.63;5092550;28;20205;-71
2022/06/05 03:58:01;;;;;;;9.90;6.90;;;;;;;27.00;100.00;100049.78;5091382;28;20213;-71
2022/06/05 04:00:28;;;;;;;9.23;7.97;;;;;;;27.48;100.00;100060.47;5090897;28;20736;-73
2022/06/05 04:02:55;;;;;;;7.65;6.90;;;;;;;28.00;100.00;100066.41;5104898;28;20205;-72
2022/06/05 04:05:22;;;;;;;11.48;7.85;;;;;;;28.39;100.00;100041.09;5109172;28;20240;-72
2022/06/05 04:07:51;;;;;;;12.18;8.38;;;;;;;29.12;97.51;100079.41;5111777;28;20193;-72
2022/06/05 04:10:19;;;;;;;17.48;10.15;;;;;;;29.37;91.92;100079.63;5108991;28;20216;-72
2022/06/05 04:12:46;;;;;;;18.48;11.60;;;;;;;29.72;90.29;100072.06;5075246;28;20196;-72
2022/06/05 04:15:13;;;;;;;16.23;10.43;;;;;;;30.23;83.87;100075.88;5062248;28;20193;-72
2022/06/05 04:17:40;;;;;;;17.17;12.00;;;;;;;30.14;83.28;100076.50;5091442;28;20197;-73
2022/06/05 04:20:08;;;;;;;28.05;11.45;;;;;;;29.46;87.52;100079.94;5098806;28;20699;-72
2022/06/05 04:22:36;;;;;;;18.80;12.63;;;;;;;28.70;94.60;100072.19;5098589;28;20189;-72
2022/06/05 04:25:04;;;;;;;25.00;15.95;;;;;;;28.65;95.58;100059.06;5098364;28;20344;-73
2022/06/05 04:27:31;;;;;;;48.20;26.60;;;;;;;28.80;92.57;100078.69;5107929;28;20194;-73
2022/06/05 04:29:59;;;;;;;49.72;31.13;;;;;;;28.51;93.94;100067.91;5091255;28;20221;-72
2022/06/05 04:32:26;;;;;;;69.25;43.10;;;;;;;28.16;97.04;100071.75;5091933;28;20198;-72
2022/06/05 04:34:54;;;;;;;104.15;59.13;;;;;;;27.91;100.00;100082.94;5109280;28;20213;-72
2022/06/05 04:37:21;;;;;;;111.15;64.15;;;;;;;27.51;100.00;100078.06;5108907;28;20198;-72
2022/06/05 04:39:48;;;;;;;110.05;62.72;;;;;;;26.82;100.00;100067.56;5111168;28;20744;-70
2022/06/05 04:42:16;;;;;;;107.53;59.83;;;;;;;26.72;100.00;100065.44;5098761;28;20199;-71
2022/06/05 04:44:43;;;;;;;84.28;49.15;;;;;;;26.65;100.00;100067.50;5058919;28;20229;-72
2022/06/05 04:47:10;;;;;;;58.03;33.28;;;;;;;26.80;100.00;100074.72;5094552;28;20239;-72
2022/06/05 04:49:36;;;;;;;43.38;29.17;;;;;;;27.38;100.00;100045.03;5102314;28;20208;-72
2022/06/05 04:52:04;;;;;;;28.27;19.30;;;;;;;28.26;99.68;100040.94;5115022;28;20209;-72
2022/06/05 04:54:31;;;;;;;27.23;17.90;;;;;;;28.89;94.00;100059.47;5065838;28;20199;-71
2022/06/05 04:56:58;;;;;;;34.83;20.33;;;;;;;29.20;91.49;100051.28;5090669;28;20202;-73
2022/06/05 04:59:26;;;;;;;24.63;15.98;;;;;;;29.77;89.62;100062.81;5114300;28;20217;-71
2022/06/05 05:01:53;;;;;;;27.88;16.45;;;;;;;29.83;84.93;100073.09;5109374;28;20194;-72
2022/06/05 05:04:20;;;;;;;22.83;15.13;;;;;;;30.31;83.76;100062.84;5094209;28;20232;-71
2022/06/05 05:06:47;;;;;;;26.02;12.65;;;;;;;30.72;79.54;100074.31;5094870;28;20190;-72
2022/06/05 05:09:14;;;;;;;17.40;12.52;;;;;;;30.93;76.34;100080.03;5097284;28;20228;-71
2022/06/05 05:11:41;;;;;;;14.32;10.23;;;;;;;31.58;73.13;100080.81;5112265;28;20197;-72
2022/06/05 05:14:10;;;;;;;11.52;9.20;;;;;;;31.76;68.91;100051.81;5109167;28;20205;-71
2022/06/05 05:16:38;;;;;;;10.25;9.20;;;;;;;31.79;69.16;100090.00;5106364;28;20201;-72
2022/06/05 05:19:05;;;;;;;9.43;7.65;;;;;;;31.73;69.64;100089.59;5094053;28;20193;-71
2022/06/05 05:21:32;;;;;;;8.63;7.72;;;;;;;31.45;70.92;100096.03;5086026;28;20200;-71
2022/06/05 05:23:59;;;;;;;7.35;6.63;;;;;;;30.74;75.16;100087.63;5112651;28;20201;-72
2022/06/05 05:26:28;;;;;;;12.20;7.32;;;;;;;30.37;79.03;100083.84;5059426;28;20197;-72
2022/06/05 05:28:56;;;;;;;8.80;7.38;;;;;;;30.36;81.18;100099.03;5096143;28;20193;-71
2022/06/05 05:31:24;;;;;;;7.20;6.07;;;;;;;30.15;82.22;100081.72;5093210;28;20197;-72
2022/06/05 05:33:53;;;;;;;7.75;6.38;;;;;;;30.17;84.46;100100.38;5093638;28;20216;-72
2022/06/05 05:36:22;;;;;;;6.50;5.90;;;;;;;30.40;81.30;100100.56;5093353;28;20189;-72
2022/06/05 05:44:31;;;;;;;6.97;6.13;;;;;;;30.14;85.80;100097.91;5048079;28;20742;-73
2022/06/05 05:46:58;;;;;;;5.65;5.15;;;;;;;29.63;88.97;100086.03;5051434;28;20265;-71
2022/06/05 05:49:27;;;;;;;7.00;5.75;;;;;;;29.66;88.33;100091.16;5047039;28;20195;-71
2022/06/05 05:51:53;;;;;;;6.22;5.63;;;;;;;29.93;87.82;100097.47;5051110;28;20206;-71
2022/06/05 05:54:21;;;;;;;7.72;6.22;;;;;;;30.46;83.65;100094.00;5053708;28;20202;-71
2022/06/05 05:56:48;;;;;;;6.18;5.68;;;;;;;29.54;88.76;100104.34;5062502;28;20210;-71
2022/06/05 05:59:15;;;;;;;8.80;6.30;;;;;;;29.59;89.55;100111.22;5057574;28;20239;-72
2022/06/05 06:01:42;;;;;;;7.85;6.18;;;;;;;29.32;90.29;100098.66;5045069;28;20581;-71
2022/06/05 06:04:09;;;;;;;9.27;6.50;;;;;;;29.41;91.45;100103.41;5042020;28;20199;-72
2022/06/05 06:06:44;;;;;;;8.95;6.15;;;;;;;29.55;92.13;100105.22;5017268;28;20195;-70
2022/06/05 06:09:11;;;;;;;12.05;5.85;;;;;;;29.39;91.12;100070.59;5050695;28;20209;-71
2022/06/05 06:11:39;;;;;;;14.18;6.13;;;;;;;29.75;90.79;100099.44;5050170;28;20576;-71
2022/06/05 06:14:05;;;;;;;7.35;6.13;;;;;;;29.42;92.06;100093.59;5060395;28;20218;-72
2022/06/05 06:16:33;;;;;;;6.53;5.70;;;;;;;29.56;94.28;100096.25;5086019;28;20698;-72
2022/06/05 06:19:00;;;;;;;20.92;12.43;;;;;;;29.38;95.16;100086.72;5096035;28;20228;-71
2022/06/05 06:21:27;;;;;;;21.05;14.02;;;;;;;29.81;90.67;100082.19;5089533;28;20194;-74
2022/06/05 06:23:55;;;;;;;7.45;5.85;;;;;;;30.26;87.79;100086.38;5047367;28;20210;-72
2022/06/05 06:26:22;;;;;;;8.73;5.75;;;;;;;30.34;85.39;100073.34;5076070;28;20665;-72
2022/06/05 06:28:49;;;;;;;5.53;4.80;;;;;;;30.27;85.53;100056.00;5080743;28;20768;-73
2022/06/05 06:31:17;;;;;;;6.82;5.53;;;;;;;29.99;88.45;100073.88;5076732;28;20198;-73
2022/06/05 06:33:48;;;;;;;6.22;5.63;;;;;;;29.87;88.06;100057.75;5077542;28;20201;-73
2022/06/05 06:36:17;;;;;;;7.10;6.45;;;;;;;30.18;88.65;100083.38;5033626;28;20217;-73
2022/06/05 06:38:44;;;;;;;8.25;6.25;;;;;;;30.01;89.96;100076.41;5071267;28;20203;-73
2022/06/05 06:41:14;;;;;;;5.75;5.22;;;;;;;29.93;89.39;100079.59;5074573;28;20271;-73
2022/06/05 06:43:43;;;;;;;6.20;5.57;;;;;;;29.87;88.18;100076.47;5080730;28;20209;-72
2022/06/05 06:46:10;;;;;;;6.97;5.18;;;;;;;30.17;85.56;100076.28;5074229;28;20621;-72
2022/06/05 06:48:37;;;;;;;7.38;5.78;;;;;;;30.04;86.02;100070.03;5072137;28;20229;-73
2022/06/05 06:51:05;;;;;;;6.20;5.65;;;;;;;30.49;86.46;100069.69;5074497;28;20236;-73
2022/06/05 06:53:34;;;;;;;7.57;6.05;;;;;;;30.23;84.51;100066.03;5071221;28;20222;-71
2022/06/05 06:56:07;;;;;;;6.10;5.60;;;;;;;29.87;89.71;100085.34;5085824;28;20205;-72
2022/06/05 06:58:35;;;;;;;6.60;5.85;;;;;;;29.39;90.96;100089.28;5089246;28;20209;-71
2022/06/05 07:01:02;;;;;;;7.32;5.90;;;;;;;28.97;95.17;100087.41;5088663;28;20237;-71
2022/06/05 07:03:29;;;;;;;6.60;5.93;;;;;;;29.24;95.17;100089.34;5102598;28;20189;-72
2022/06/05 07:05:57;;;;;;;10.27;6.38;;;;;;;28.82;97.35;100087.47;5093167;28;20226;-72
2022/06/05 07:08:24;;;;;;;7.05;5.93;;;;;;;28.66;98.68;100068.81;5053975;28;20209;-72
2022/06/05 07:10:51;;;;;;;9.85;6.95;;;;;;;29.05;96.98;100089.59;5108343;28;20201;-72
2022/06/05 07:13:17;;;;;;;10.50;7.43;;;;;;;28.94;99.68;100092.06;5109389;28;20194;-72
2022/06/05 07:15:46;;;;;;;9.25;6.95;;;;;;;28.90;99.60;100094.06;5109152;28;20211;-72
2022/06/05 07:18:13;;;;;;;6.63;5.97;;;;;;;29.29;96.17;100097.94;5100536;28;20209;-71
2022/06/05 07:20:42;;;;;;;9.00;5.78;;;;;;;29.34;90.87;100074.50;5087565;28;20197;-72
2022/06/05 07:23:10;;;;;;;6.80;6.20;;;;;;;29.51;89.11;100074.28;5087700;28;20218;-72
2022/06/05 07:25:38;;;;;;;7.75;6.10;;;;;;;29.90;86.89;100098.50;5087894;28;20798;-72
2022/06/05 07:28:06;;;;;;;6.00;5.50;;;;;;;30.07;85.17;100085.88;5087752;28;20197;-71
2022/06/05 07:30:33;;;;;;;6.32;5.68;;;;;;;30.06;84.07;100098.41;5087772;28;20201;-72
2022/06/05 07:33:01;;;;;;;6.68;5.93;;;;;;;30.11;87.52;100100.78;5087321;28;20667;-73
2022/06/05 07:35:28;;;;;;;8.68;5.78;;;;;;;30.30;83.87;100093.25;5068385;28;20624;-72
2022/06/05 07:37:55;;;;;;;6.90;5.68;;;;;;;30.60;82.19;100087.69;5087466;28;20198;-72
2022/06/05 07:40:22;;;;;;;6.40;5.60;;;;;;;31.05;81.08;100070.31;5087757;28;20205;-72
2022/06/05 07:42:49;;;;;;;6.78;5.63;;;;;;;31.40;79.40;100088.31;5088332;28;20198;-72
2022/06/05 07:45:16;;;;;;;11.27;5.55;;;;;;;30.78;80.21;100079.28;5084297;28;20230;-70
2022/06/05 07:47:44;;;;;;;7.85;5.55;;;;;;;30.44;82.82;100080.69;5071378;28;20208;-77
2022/06/05 07:50:14;;;;;;;6.70;5.95;;;;;;;30.42;84.53;100076.41;5071384;28;20198;-77
2022/06/05 07:55:26;;;;;;;8.68;6.18;;;;;;;30.11;82.81;100020.53;5070796;28;20316;-71
2022/06/05 07:57:53;;;;;;;5.60;4.93;;;;;;;29.82;84.55;100031.25;5070598;28;20198;-71
2022/06/05 08:00:21;;;;;;;7.95;5.40;;;;;;;30.15;85.29;100079.06;5070590;28;20737;-70
2022/06/05 08:02:48;;;;;;;9.27;6.35;;;;;;;30.22;86.41;100076.81;5070803;28;20198;-71
2022/06/05 08:05:17;;;;;;;5.78;5.32;;;;;;;29.77;94.29;100080.66;5070193;28;20250;-71
2022/06/05 08:07:44;;;;;;;6.35;5.78;;;;;;;29.32;97.07;100029.19;5070611;28;20195;-71
2022/06/05 08:10:11;;;;;;;8.13;6.03;;;;;;;29.81;96.22;100072.34;5073689;28;20224;-71
2022/06/05 08:12:38;;;;;;;8.25;5.78;;;;;;;29.92;92.77;100044.94;5092199;28;20280;-71
2022/06/05 08:15:09;;;;;;;6.70;6.10;;;;;;;30.37;90.85;100071.31;5091288;28;20201;-72
2022/06/05 08:17:37;;;;;;;12.43;6.38;;;;;;;30.05;89.69;100019.09;5076320;28;20733;-72
2022/06/05 08:20:06;;;;;;;5.70;5.18;;;;;;;30.42;86.00;100068.38;5086309;28;20208;-71
2022/06/05 08:22:35;;;;;;;7.88;5.03;;;;;;;29.67;92.61;100067.03;5086673;28;20201;-72
2022/06/05 08:25:02;;;;;;;5.68;5.20;;;;;;;29.84;93.60;100053.47;5083420;28;20201;-72
2022/06/05 08:27:29;;;;;;;5.72;5.20;;;;;;;30.12;88.83;100071.22;5104089;28;20222;-77
2022/06/05 08:29:57;;;;;;;8.80;5.15;;;;;;;30.20;88.87;100057.34;5100069;28;20221;-71
2022/06/05 08:32:25;;;;;;;9.60;6.10;;;;;;;30.55;86.99;100061.22;5091740;28;20209;-70
2022/06/05 08:34:52;;;;;;;8.48;5.38;;;;;;;30.59;85.78;100054.72;5090677;28;20679;-71
2022/06/05 08:43:29;;;;;;;10.15;6.15;;;;;;;30.54;91.21;100043.44;5046482;28;20325;-70
2022/06/05 08:46:06;;;;;;;10.07;6.28;;;;;;;30.48;88.68;100044.75;5040752;28;20229;-71
2022/06/05 08:48:37;;;;;;;6.50;5.90;;;;;;;29.92;88.52;99994.13;5049754;28;20214;-70
2022/06/05 08:51:18;;;;;;;9.80;6.22;;;;;;;30.18;88.34;100045.91;5040863;28;20222;-70
2022/06/05 08:53:51;;;;;;;9.07;6.13;;;;;;;30.34;88.13;100033.22;5048102;28;20313;-69
2022/06/05 08:56:31;;;;;;;6.22;5.18;;;;;;;30.36;87.61;100045.50;5027502;28;20222;-69
2022/06/05 08:59:03;;;;;;;8.35;6.40;;;;;;;30.12;88.33;100014.19;5039114;28;20305;-70
2022/06/05 09:01:38;;;;;;;8.10;6.03;;;;;;;29.95;89.61;100040.25;5053610;28;20224;-71
2022/06/05 09:04:24;;;;;;;8.93;5.88;;;;;;;29.95;91.16;100036.72;5054323;28;20779;-71
2022/06/05 09:06:55;;;;;;;5.72;5.25;;;;;;;29.97;92.42;100040.13;4953127;28;20275;-69
2022/06/05 09:09:26;;;;;;;9.93;5.72;;;;;;;30.18;92.24;100027.19;4956762;28;20933;-71
2022/06/05 09:12:02;;;;;;;7.53;5.70;;;;;;;30.63;89.71;100042.84;4952222;28;20207;-71
2022/06/05 09:14:38;;;;;;;6.75;6.03;;;;;;;30.51;90.89;100043.66;4958968;28;20212;-71
2022/06/05 09:17:17;;;;;;;7.32;5.90;;;;;;;30.60;88.80;100037.69;4949341;29;20789;-72
2022/06/05 09:19:45;;;;;;;9.13;5.50;;;;;;;30.48;85.06;100022.47;4987710;28;20204;-71
2022/06/05 09:22:18;;;;;;;8.85;6.00;;;;;;;30.18;84.99;99979.03;5008222;28;20215;-71
2022/06/05 09:25:27;;;;;;;9.55;5.97;;;;;;;30.47;84.96;100032.31;5008509;28;20231;-71
2022/06/05 09:28:26;;;;;;;15.70;5.75;;;;;;;30.54;86.58;100032.75;4929804;29;20215;-71
2022/06/05 09:30:58;;;;;;;7.00;6.25;;;;;;;30.66;83.33;100029.25;4898472;29;20219;-72
2022/06/05 09:33:30;;;;;;;13.05;5.50;;;;;;;30.68;81.59;100013.91;4930115;29;20302;-72
2022/06/05 09:36:01;;;;;;;10.13;5.93;;;;;;;30.69;80.52;99993.34;4929889;29;20223;-71
2022/06/05 09:38:31;;;;;;;7.80;5.63;;;;;;;30.69;81.54;100023.66;4907704;29;20203;-71
2022/06/05 09:41:16;;;;;;;8.43;5.57;;;;;;;30.63;79.46;99991.13;4923775;29;20214;-71
2022/06/05 09:44:05;;;;;;;11.20;5.88;;;;;;;30.94;77.92;100012.97;4947622;28;20199;-72
2022/06/05 09:46:55;;;;;;;8.05;5.45;;;;;;;30.55;77.72;99994.31;4993884;28;20231;-71
2022/06/05 09:49:27;;;;;;;6.07;4.90;;;;;;;30.83;78.27;100007.50;4992977;28;20725;-71
2022/06/05 09:51:54;;;;;;;6.82;5.45;;;;;;;30.73;78.86;99994.88;5027068;28;20204;-72
2022/06/05 09:54:24;;;;;;;8.15;4.93;;;;;;;30.86;77.64;100007.28;5025123;28;20218;-72
2022/06/05 09:59:54;;;;;;;24.30;14.60;;;;;;;30.79;74.65;99992.63;5026792;28;20242;-71
2022/06/05 10:02:24;;;;;;;6.57;5.35;;;;;;;31.13;75.80;99987.59;4997220;28;20200;-71
2022/06/05 10:04:51;;;;;;;14.32;6.03;;;;;;;31.41;72.42;100003.41;5053957;28;20209;-71
2022/06/05 10:07:25;;;;;;;8.07;5.43;;;;;;;31.09;72.49;99986.09;5064445;28;20309;-71
2022/06/05 10:09:52;;;;;;;7.57;5.18;;;;;;;31.30;73.88;99974.69;5082963;28;20669;-71
2022/06/05 10:12:25;;;;;;;6.78;5.60;;;;;;;31.36;75.08;99976.94;5077780;28;20202;-71
2022/06/05 10:15:00;;;;;;;7.85;5.88;;;;;;;31.41;75.42;99993.53;5068786;28;20210;-71
2022/06/05 10:17:46;;;;;;;6.57;5.95;;;;;;;31.79;73.62;99977.34;5075911;28;20221;-71
2022/06/05 10:20:56;;;;;;;8.07;5.07;;;;;;;31.99;69.10;99994.66;5083859;28;20217;-71
2022/06/05 10:23:45;;;;;;;6.57;4.25;;;;;;;31.44;65.99;99992.47;5077134;28;20255;-71
2022/06/05 10:26:20;;;;;;;5.72;4.93;;;;;;;31.56;66.13;99994.28;5081920;28;20290;-70
2022/06/05 10:28:51;;;;;;;5.20;4.78;;;;;;;31.40;66.07;99994.50;5082428;28;20852;-70
2022/06/05 10:31:28;;;;;;;9.93;5.20;;;;;;;31.34;68.82;99980.69;5082401;28;20201;-69
2022/06/05 10:34:11;;;;;;;5.55;4.80;;;;;;;31.63;68.34;99975.94;5088232;28;20205;-70
2022/06/05 10:36:58;;;;;;;5.10;4.30;;;;;;;32.09;60.43;99981.44;5085800;28;20650;-71
2022/06/05 10:39:33;;;;;;;7.25;4.75;;;;;;;32.09;58.69;99979.59;5041580;28;20207;-70
2022/06/05 10:42:27;;;;;;;5.95;4.78;;;;;;;32.08;59.59;99979.72;5042764;28;20218;-71
2022/06/05 10:45:09;;;;;;;5.15;4.65;;;;;;;31.82;63.33;99970.94;4988847;28;20646;-71
2022/06/05 10:47:45;;;;;;;10.68;5.15;;;;;;;31.84;63.55;99969.84;4985223;28;20219;-71
2022/06/05 10:50:19;;;;;;;5.82;4.82;;;;;;;31.99;64.23;99967.84;4995512;28;20203;-71
2022/06/05 10:52:57;;;;;;;4.63;4.22;;;;;;;31.77;66.05;99939.06;5037498;28;20668;-70
2022/06/05 10:55:43;;;;;;;9.07;6.78;;;;;;;31.51;66.69;99971.41;5036279;28;20229;-70
2022/06/05 10:58:19;;;;;;;9.13;5.57;;;;;;;31.53;68.18;99959.66;5043206;28;20721;-70
2022/06/05 11:00:59;;;;;;;6.97;5.72;;;;;;;31.35;66.95;99942.22;5044783;28;20230;-70
2022/06/05 11:03:38;;;;;;;5.75;5.20;;;;;;;31.22;68.39;99954.78;5042448;28;20792;-70
2022/06/05 11:06:18;;;;;;;6.20;5.70;;;;;;;31.43;68.52;99961.25;5031814;28;20234;-70
2022/06/05 11:08:58;;;;;;;8.32;5.30;;;;;;;31.21;64.23;99937.00;5039785;28;20210;-70
2022/06/05 11:14:21;;;;;;;6.13;5.60;;;;;;;31.54;63.88;99955.13;5034821;28;20242;-75
2022/06/05 11:16:53;;;;;;;10.40;6.15;;;;;;;31.79;61.72;99945.16;5063404;28;20562;-71
2022/06/05 11:19:32;;;;;;;5.85;5.10;;;;;;;32.26;61.09;99948.78;5084085;28;20756;-71
2022/06/05 11:22:02;;;;;;;12.00;5.20;;;;;;;31.95;61.55;99897.47;5075857;28;20980;-71
2022/06/05 11:24:33;;;;;;;25.08;16.33;;;;;;;32.31;59.95;99947.50;5084740;28;20217;-71
2022/06/05 11:27:09;;;;;;;6.22;5.60;;;;;;;32.04;60.53;99937.94;5064721;28;20221;-71
2022/06/05 11:29:47;;;;;;;9.27;5.00;;;;;;;32.15;60.48;99936.19;5082785;28;20209;-72
2022/06/05 11:32:28;;;;;;;6.50;5.63;;;;;;;32.27;60.54;99947.84;5078740;28;20205;-72
2022/06/05 11:35:02;;;;;;;5.70;5.20;;;;;;;31.98;63.24;99911.59;5085599;28;20205;-72
2022/06/05 11:37:46;;;;;;;10.48;6.35;;;;;;;32.34;63.64;99941.88;5080298;28;20202;-72
2022/06/05 11:40:30;;;;;;;9.75;6.47;;;;;;;32.54;64.17;99926.88;5084999;28;20288;-71
2022/06/05 11:43:16;;;;;;;6.20;5.70;;;;;;;32.43;64.37;99940.28;5084522;28;20208;-71
2022/06/05 11:45:52;;;;;;;8.45;6.25;;;;;;;32.15;63.19;99887.03;5076064;28;20197;-73
2022/06/05 11:48:27;;;;;;;6.72;5.85;;;;;;;32.18;62.80;99929.72;5077797;28;20209;-73
2022/06/05 11:51:10;;;;;;;7.03;6.40;;;;;;;32.37;63.14;99933.59;5069216;28;20215;-73
2022/06/05 11:53:47;;;;;;;7.68;6.00;;;;;;;32.36;63.89;99928.31;5068705;28;20669;-72
2022/06/05 11:56:35;;;;;;;11.15;6.80;;;;;;;32.36;64.37;99906.84;5068511;28;20208;-73
2022/06/05 11:59:15;;;;;;;11.32;6.05;;;;;;;32.26;65.06;99917.44;5068620;28;20250;-73
2022/06/05 12:01:49;;;;;;;6.65;5.78;;;;;;;32.26;64.44;99930.00;5067267;28;20696;-73